x

Buoy E01 - Central Maine Shelf (44032) Wave Buoy

11:04 - Mon 28th Jul 2014 All times are EDT. -4 hours from GMT.

  • Sig Wave height 2.6ft
  • Peak Period 5s
  • Wind
    13mph, 16mph gusts
  • Sea Temp 61°f
  • Ar Temp 62°f
  • Sea Pressure 1002.1mb
  • Buoy E01 - Central Maine Shelf
  • Buoy E01 - Central Maine Shelf

More Historic Weather Station data

Upgrade to MSW Pro to gain access to the past 30 days of data for over 8000 Wavebouys and Weather Stations around the globe.

Join Pro

Comparision Forecast

View Surf forecast
   
Seg 07/28 11:04 2.5ft 5s 13 16 mph 1002.1mb 61f 62f
10:04 2.5ft 5s 9 11 mph 1002.8mb 61f 63f
9:04 2.5ft 5s 9 11 mph 1003.7mb 61f 63f
8:04 3ft 5s 11 13 mph 1003.6mb 60f 62f
7:04 2.5ft 5s 9 11 mph 1003.9mb 60f 63f
6:04 3ft 5s 9
mph
1004.2mb 60f 63f
5:04 3ft 5s 9
mph
1004.2mb 59f 62f
12:04 3.5ft 5s 11
mph
1004.5mb 60f 63f
Dom 07/27 11:04 3.5ft 5s 9 11 mph 1004.7mb 60f 63f
10:04 3.5ft 5s 9
mph
1005.1mb 60f 63f
9:04 4.5ft 5s 9 11 mph 1005.5mb 60f 63f
8:04 5ft 6s 11 13 mph 1005.4mb 60f 63f
7:04 5ft 5s 16 20 mph 1005.6mb 60f 64f
6:04 5ft 5s 16 18 mph 1005.9mb 60f 64f
5:04 4ft 5s 16 18 mph 1006.3mb 60f 65f
4:04 4.5ft 5s 16 18 mph 1006.9mb 60f 65f
3:04 3.5ft 4s 16 18 mph 1007.2mb 60f 65f
2:04 2.5ft 5s 13 16 mph 1007.1mb 60f 65f
1:04 3ft 8s 11 13 mph 1007.6mb 60f 64f
12:04 3.5ft 6s 13 16 mph 1007.8mb 61f 64f
11:04 3.5ft 5s 11 13 mph 1008.3mb 61f 64f
10:04 3.5ft 6s 9
mph
1008.9mb 60f 63f
9:04 3.5ft 8s 11
mph
1009.2mb 60f 63f
8:04 3.5ft 5s 9 11 mph 1009.3mb 60f 63f
Sáb 07/26 11:04 3.5ft 5s 11
mph
1010.3mb 60f 63f
10:04 4.5ft 5s 13
mph
1010.5mb 59f 64f
9:04 4.5ft 5s 16 18 mph 1010.4mb 59f 64f
8:04 3.5ft 5s 16 18 mph 1009.9mb 60f 65f
7:04 3.5ft 5s 16 18 mph 1010.3mb 60f 65f
6:04 2.5ft 5s 13 16 mph 1010.4mb 60f 65f
5:04 2.5ft 8s 11 13 mph 1010.7mb 60f 65f
2:04 3ft 11s 11 13 mph 1012mb 59f 64f
1:04 2.5ft 8s 11 13 mph 1012.2mb 59f 64f
12:04 2.5ft 8s 9
mph
1012.5mb 59f 63f
11:04 2.5ft 8s 7
mph
1012.9mb 58f 63f
10:04 2.5ft 8s 9 11 mph 1013.1mb 58f 62f
9:04 2.5ft 8s 13
mph
1013.1mb 58f 62f
8:04 2.5ft 8s 7 9 mph 1013.1mb 58f 62f
7:04 3ft 8s 9 11 mph 1013.1mb 58f 62f
6:04  -   -  7 9 mph 1012.9mb - 62f
5:04 2.5ft 8s 9 11 mph 1012.7mb 57f 63f
4:04 3ft 11s 9 11 mph 1012.4mb 59f 63f
3:04 2ft 5s 7 9 mph 1012.4mb 60f 63f
2:04 3.5ft 11s 7 9 mph 1012.2mb 60f 63f
1:04 2.5ft 5s 11 13 mph 1012.5mb 60f 64f
12:04 3ft 5s 11 13 mph 1012.3mb 61f 64f
Sex 07/25 11:04 3ft 5s 11 13 mph 1012.3mb 61f 64f
10:04 3ft 8s 11
mph
1012.1mb 60f 64f
9:04 3.5ft 8s 11 13 mph 1012mb 60f 64f
8:04 2ft 4s 13 16 mph 1011.5mb 60f 64f
7:04 1.3ft 3s 16
mph
1011.4mb 60f 65f
6:04 2.5ft 8s 11 13 mph 1011.1mb 60f 65f
5:04 2ft 8s 11 13 mph 1011.1mb 60f 65f
4:04 2.5ft 8s 13
mph
1011.5mb 60f 65f
3:04 2ft 8s 13 16 mph 1011.4mb 60f 64f
2:04 0.7ft  -  11 13 mph 1011.5mb 61f 64f
1:04 2ft 11s 9 11 mph 1012.1mb 61f 63f
12:04  -   -  7 9 mph 1012.5mb 61f 62f
11:04 2ft 11s 4 7 mph 1012.8mb 61f 62f
10:04 0.3ft  -  4
mph
1012.7mb 59f 61f
9:04 2.5ft 8s 4
mph
1012.6mb 59f 61f
8:04 2ft 8s 7 9 mph 1012.7mb 59f 61f
7:04 2ft 8s 9 11 mph 1012.5mb 59f 61f
6:04 3ft 8s 9 11 mph 1012.2mb 59f 60f
5:04 2.5ft 8s 9
mph
1011.7mb 59f 60f
4:04  -   -  11
mph
1011.7mb 59f 61f
3:04 1.3ft 8s 9 11 mph 1011.5mb 58f 61f
2:04 1.6ft 11s 9 11 mph 1011.1mb 59f 61f
1:04 1.6ft 11s 9
mph
1011.3mb 58f 61f
12:04 1.3ft 8s 9
mph
1011mb 59f 61f
Qui 07/24 11:04 1.3ft 11s 7 9 mph 1010.8mb 59f 61f
10:04 1.6ft 11s 4 7 mph 1010.5mb 59f 61f
9:04 1.6ft 8s 4 7 mph 1010.2mb 60f 61f
8:04 1.6ft 11s 4
mph
1009.5mb 60f 61f
7:04 1.3ft 8s 4
mph
1009.2mb 60f 63f
6:04 1.6ft 8s 4 7 mph 1009.2mb 60f 62f
5:04 1.6ft 8s 4 7 mph 1009mb 58f 61f